sensor_id;sensor_type;location;lat;lon;timestamp;P1;durP1;ratioP1;P2;durP2;ratioP2
61709;SDS011;47633;51.494;5.386;2022-09-09T00:00:12;2.08;;;0.73;;
61709;SDS011;47633;51.494;5.386;2022-09-09T00:02:40;1.45;;;0.50;;
61709;SDS011;47633;51.494;5.386;2022-09-09T00:05:23;1.20;;;0.50;;
61709;SDS011;47633;51.494;5.386;2022-09-09T00:07:58;1.65;;;0.60;;
61709;SDS011;47633;51.494;5.386;2022-09-09T00:10:32;0.98;;;0.50;;
61709;SDS011;47633;51.494;5.386;2022-09-09T00:13:09;1.70;;;0.52;;
61709;SDS011;47633;51.494;5.386;2022-09-09T00:18:48;1.63;;;0.60;;
61709;SDS011;47633;51.494;5.386;2022-09-09T00:21:21;1.33;;;0.50;;
61709;SDS011;47633;51.494;5.386;2022-09-09T00:23:57;0.90;;;0.50;;
61709;SDS011;47633;51.494;5.386;2022-09-09T00:26:38;3.22;;;0.60;;
61709;SDS011;47633;51.494;5.386;2022-09-09T00:31:33;1.67;;;0.57;;
61709;SDS011;47633;51.494;5.386;2022-09-09T00:34:02;1.65;;;0.50;;
61709;SDS011;47633;51.494;5.386;2022-09-09T00:36:34;1.95;;;0.60;;
61709;SDS011;47633;51.494;5.386;2022-09-09T00:39:01;1.35;;;0.57;;
61709;SDS011;47633;51.494;5.386;2022-09-09T00:44:11;1.98;;;0.50;;
61709;SDS011;47633;51.494;5.386;2022-09-09T00:46:50;1.83;;;0.50;;
61709;SDS011;47633;51.494;5.386;2022-09-09T00:49:37;1.63;;;0.50;;
61709;SDS011;47633;51.494;5.386;2022-09-09T00:58:06;1.55;;;0.50;;
61709;SDS011;47633;51.494;5.386;2022-09-09T01:00:41;2.25;;;0.73;;
61709;SDS011;47633;51.494;5.386;2022-09-09T01:06:16;2.03;;;0.70;;
61709;SDS011;47633;51.494;5.386;2022-09-09T01:17:01;1.85;;;0.80;;
61709;SDS011;47633;51.494;5.386;2022-09-09T01:19:45;1.25;;;0.50;;
61709;SDS011;47633;51.494;5.386;2022-09-09T01:22:29;1.35;;;0.50;;
61709;SDS011;47633;51.494;5.386;2022-09-09T01:27:51;1.95;;;0.50;;
61709;SDS011;47633;51.494;5.386;2022-09-09T01:30:19;2.50;;;0.70;;
61709;SDS011;47633;51.494;5.386;2022-09-09T01:32:46;1.50;;;0.60;;
61709;SDS011;47633;51.494;5.386;2022-09-09T01:35:28;3.78;;;0.80;;
61709;SDS011;47633;51.494;5.386;2022-09-09T01:37:56;2.08;;;0.70;;
61709;SDS011;47633;51.494;5.386;2022-09-09T01:40:21;1.00;;;0.57;;
61709;SDS011;47633;51.494;5.386;2022-09-09T01:42:47;2.22;;;0.60;;
61709;SDS011;47633;51.494;5.386;2022-09-09T01:45:13;0.68;;;0.47;;
61709;SDS011;47633;51.494;5.386;2022-09-09T01:47:38;4.90;;;0.60;;
61709;SDS011;47633;51.494;5.386;2022-09-09T01:50:03;1.77;;;0.50;;
61709;SDS011;47633;51.494;5.386;2022-09-09T01:52:29;1.40;;;0.60;;
61709;SDS011;47633;51.494;5.386;2022-09-09T01:54:56;1.45;;;0.50;;
61709;SDS011;47633;51.494;5.386;2022-09-09T01:57:25;0.85;;;0.50;;
61709;SDS011;47633;51.494;5.386;2022-09-09T02:02:39;1.15;;;0.60;;
61709;SDS011;47633;51.494;5.386;2022-09-09T02:11:19;1.33;;;0.57;;
61709;SDS011;47633;51.494;5.386;2022-09-09T02:13:47;2.83;;;0.60;;
61709;SDS011;47633;51.494;5.386;2022-09-09T02:16:18;3.13;;;0.70;;
61709;SDS011;47633;51.494;5.386;2022-09-09T02:19:37;2.78;;;0.80;;
61709;SDS011;47633;51.494;5.386;2022-09-09T02:21:55;1.75;;;0.60;;
61709;SDS011;47633;51.494;5.386;2022-09-09T02:24:24;2.80;;;0.63;;
61709;SDS011;47633;51.494;5.386;2022-09-09T02:26:51;2.75;;;0.88;;
61709;SDS011;47633;51.494;5.386;2022-09-09T02:29:27;1.05;;;0.60;;
61709;SDS011;47633;51.494;5.386;2022-09-09T02:31:59;2.80;;;0.70;;
61709;SDS011;47633;51.494;5.386;2022-09-09T02:34:29;2.65;;;0.80;;
61709;SDS011;47633;51.494;5.386;2022-09-09T02:36:59;2.67;;;0.70;;
61709;SDS011;47633;51.494;5.386;2022-09-09T02:39:29;1.48;;;0.60;;
61709;SDS011;47633;51.494;5.386;2022-09-09T02:41:54;1.33;;;0.70;;
61709;SDS011;47633;51.494;5.386;2022-09-09T02:44:20;2.45;;;1.00;;
61709;SDS011;47633;51.494;5.386;2022-09-09T02:49:21;1.67;;;0.60;;
61709;SDS011;47633;51.494;5.386;2022-09-09T02:52:07;1.70;;;0.70;;
61709;SDS011;47633;51.494;5.386;2022-09-09T02:54:34;1.55;;;0.50;;
61709;SDS011;47633;51.494;5.386;2022-09-09T02:59:41;2.30;;;0.73;;
61709;SDS011;47633;51.494;5.386;2022-09-09T03:02:08;2.47;;;0.85;;
61709;SDS011;47633;51.494;5.386;2022-09-09T03:04:35;2.75;;;0.90;;
61709;SDS011;47633;51.494;5.386;2022-09-09T03:07:00;1.05;;;0.60;;
61709;SDS011;47633;51.494;5.386;2022-09-09T03:09:25;1.77;;;0.80;;
61709;SDS011;47633;51.494;5.386;2022-09-09T03:11:51;2.63;;;0.63;;
61709;SDS011;47633;51.494;5.386;2022-09-09T03:14:16;2.45;;;0.50;;
61709;SDS011;47633;51.494;5.386;2022-09-09T03:16:46;2.25;;;0.77;;
61709;SDS011;47633;51.494;5.386;2022-09-09T03:19:11;2.60;;;0.88;;
61709;SDS011;47633;51.494;5.386;2022-09-09T03:21:36;1.57;;;0.77;;
61709;SDS011;47633;51.494;5.386;2022-09-09T03:24:01;1.87;;;0.70;;
61709;SDS011;47633;51.494;5.386;2022-09-09T03:26:28;2.40;;;0.63;;
61709;SDS011;47633;51.494;5.386;2022-09-09T03:28:55;2.70;;;0.60;;
61709;SDS011;47633;51.494;5.386;2022-09-09T03:31:20;1.42;;;0.60;;
61709;SDS011;47633;51.494;5.386;2022-09-09T03:33:46;1.80;;;0.60;;
61709;SDS011;47633;51.494;5.386;2022-09-09T03:36:11;3.25;;;0.68;;
61709;SDS011;47633;51.494;5.386;2022-09-09T03:38:36;2.33;;;0.70;;
61709;SDS011;47633;51.494;5.386;2022-09-09T03:41:02;2.05;;;0.68;;
61709;SDS011;47633;51.494;5.386;2022-09-09T03:43:28;1.25;;;0.50;;
61709;SDS011;47633;51.494;5.386;2022-09-09T03:45:54;2.60;;;0.70;;
61709;SDS011;47633;51.494;5.386;2022-09-09T03:48:22;1.35;;;0.57;;
61709;SDS011;47633;51.494;5.386;2022-09-09T03:50:50;2.15;;;0.60;;
61709;SDS011;47633;51.494;5.386;2022-09-09T03:53:17;1.20;;;0.60;;
61709;SDS011;47633;51.494;5.386;2022-09-09T03:55:45;3.20;;;0.70;;
61709;SDS011;47633;51.494;5.386;2022-09-09T03:58:11;3.05;;;0.60;;
61709;SDS011;47633;51.494;5.386;2022-09-09T04:00:38;1.40;;;0.63;;
61709;SDS011;47633;51.494;5.386;2022-09-09T04:03:07;3.10;;;0.70;;
61709;SDS011;47633;51.494;5.386;2022-09-09T04:05:33;1.70;;;0.60;;
61709;SDS011;47633;51.494;5.386;2022-09-09T04:07:59;2.45;;;0.63;;
61709;SDS011;47633;51.494;5.386;2022-09-09T04:10:24;2.42;;;0.60;;
61709;SDS011;47633;51.494;5.386;2022-09-09T04:12:49;1.70;;;0.63;;
61709;SDS011;47633;51.494;5.386;2022-09-09T04:15:14;2.00;;;0.60;;
61709;SDS011;47633;51.494;5.386;2022-09-09T04:17:40;1.55;;;0.60;;
61709;SDS011;47633;51.494;5.386;2022-09-09T04:20:05;2.57;;;0.60;;
61709;SDS011;47633;51.494;5.386;2022-09-09T04:22:32;5.22;;;0.70;;
61709;SDS011;47633;51.494;5.386;2022-09-09T04:24:58;1.95;;;0.68;;
61709;SDS011;47633;51.494;5.386;2022-09-09T04:27:23;2.17;;;0.63;;
61709;SDS011;47633;51.494;5.386;2022-09-09T04:29:48;1.77;;;0.70;;
61709;SDS011;47633;51.494;5.386;2022-09-09T04:32:13;4.50;;;0.70;;
61709;SDS011;47633;51.494;5.386;2022-09-09T04:34:39;1.70;;;0.65;;
61709;SDS011;47633;51.494;5.386;2022-09-09T04:37:05;2.92;;;0.75;;
61709;SDS011;47633;51.494;5.386;2022-09-09T04:39:30;2.42;;;0.80;;
61709;SDS011;47633;51.494;5.386;2022-09-09T04:41:56;1.80;;;0.60;;
61709;SDS011;47633;51.494;5.386;2022-09-09T04:44:21;3.75;;;0.82;;
61709;SDS011;47633;51.494;5.386;2022-09-09T04:46:46;3.50;;;0.70;;
61709;SDS011;47633;51.494;5.386;2022-09-09T04:49:11;2.33;;;0.75;;
61709;SDS011;47633;51.494;5.386;2022-09-09T04:51:37;2.53;;;0.60;;
61709;SDS011;47633;51.494;5.386;2022-09-09T04:54:02;3.03;;;0.80;;
61709;SDS011;47633;51.494;5.386;2022-09-09T04:56:27;2.47;;;0.65;;
61709;SDS011;47633;51.494;5.386;2022-09-09T04:58:53;2.22;;;0.50;;
61709;SDS011;47633;51.494;5.386;2022-09-09T05:01:19;1.90;;;0.63;;
61709;SDS011;47633;51.494;5.386;2022-09-09T05:03:49;3.45;;;0.73;;
61709;SDS011;47633;51.494;5.386;2022-09-09T05:06:15;1.67;;;0.80;;
61709;SDS011;47633;51.494;5.386;2022-09-09T05:08:43;2.38;;;0.90;;
61709;SDS011;47633;51.494;5.386;2022-09-09T05:11:16;3.53;;;1.00;;
61709;SDS011;47633;51.494;5.386;2022-09-09T05:13:43;2.72;;;1.00;;
61709;SDS011;47633;51.494;5.386;2022-09-09T05:16:09;2.10;;;0.68;;
61709;SDS011;47633;51.494;5.386;2022-09-09T05:18:36;2.78;;;1.05;;
61709;SDS011;47633;51.494;5.386;2022-09-09T05:21:02;3.75;;;0.75;;
61709;SDS011;47633;51.494;5.386;2022-09-09T05:23:27;1.75;;;0.63;;
61709;SDS011;47633;51.494;5.386;2022-09-09T05:25:56;2.07;;;0.70;;
61709;SDS011;47633;51.494;5.386;2022-09-09T05:28:22;3.78;;;1.00;;
61709;SDS011;47633;51.494;5.386;2022-09-09T05:30:59;2.25;;;0.80;;
61709;SDS011;47633;51.494;5.386;2022-09-09T05:33:26;2.15;;;0.80;;
61709;SDS011;47633;51.494;5.386;2022-09-09T05:35:59;2.78;;;0.75;;
61709;SDS011;47633;51.494;5.386;2022-09-09T05:38:26;5.97;;;1.08;;
61709;SDS011;47633;51.494;5.386;2022-09-09T05:40:52;2.35;;;0.85;;
61709;SDS011;47633;51.494;5.386;2022-09-09T05:43:18;3.47;;;0.93;;
61709;SDS011;47633;51.494;5.386;2022-09-09T05:45:45;3.22;;;1.08;;
61709;SDS011;47633;51.494;5.386;2022-09-09T05:48:12;4.30;;;0.98;;
61709;SDS011;47633;51.494;5.386;2022-09-09T05:50:37;2.08;;;0.70;;
61709;SDS011;47633;51.494;5.386;2022-09-09T05:53:02;3.47;;;0.77;;
61709;SDS011;47633;51.494;5.386;2022-09-09T05:55:28;2.90;;;0.90;;
61709;SDS011;47633;51.494;5.386;2022-09-09T05:57:54;3.65;;;0.90;;
61709;SDS011;47633;51.494;5.386;2022-09-09T06:00:19;3.17;;;0.80;;
61709;SDS011;47633;51.494;5.386;2022-09-09T06:02:50;3.30;;;1.00;;
61709;SDS011;47633;51.494;5.386;2022-09-09T06:05:17;4.53;;;0.95;;
61709;SDS011;47633;51.494;5.386;2022-09-09T06:07:42;7.50;;;1.30;;
61709;SDS011;47633;51.494;5.386;2022-09-09T06:10:09;3.40;;;0.90;;
61709;SDS011;47633;51.494;5.386;2022-09-09T06:12:35;4.88;;;0.93;;
61709;SDS011;47633;51.494;5.386;2022-09-09T06:15:00;3.35;;;0.80;;
61709;SDS011;47633;51.494;5.386;2022-09-09T06:17:26;5.30;;;1.02;;
61709;SDS011;47633;51.494;5.386;2022-09-09T06:19:51;4.43;;;0.90;;
61709;SDS011;47633;51.494;5.386;2022-09-09T06:22:17;4.68;;;0.98;;
61709;SDS011;47633;51.494;5.386;2022-09-09T06:24:42;2.60;;;0.80;;
61709;SDS011;47633;51.494;5.386;2022-09-09T06:27:09;4.40;;;1.00;;
61709;SDS011;47633;51.494;5.386;2022-09-09T06:29:35;4.55;;;1.30;;
61709;SDS011;47633;51.494;5.386;2022-09-09T06:32:01;5.05;;;0.90;;
61709;SDS011;47633;51.494;5.386;2022-09-09T06:34:27;6.13;;;1.13;;
61709;SDS011;47633;51.494;5.386;2022-09-09T06:36:53;5.57;;;0.93;;
61709;SDS011;47633;51.494;5.386;2022-09-09T06:39:18;6.07;;;1.10;;
61709;SDS011;47633;51.494;5.386;2022-09-09T06:41:43;4.30;;;0.93;;
61709;SDS011;47633;51.494;5.386;2022-09-09T06:44:08;3.73;;;0.90;;
61709;SDS011;47633;51.494;5.386;2022-09-09T06:46:36;3.67;;;0.82;;
61709;SDS011;47633;51.494;5.386;2022-09-09T06:49:01;5.40;;;1.10;;
61709;SDS011;47633;51.494;5.386;2022-09-09T06:51:28;5.35;;;1.10;;
61709;SDS011;47633;51.494;5.386;2022-09-09T06:53:56;3.42;;;0.93;;
61709;SDS011;47633;51.494;5.386;2022-09-09T06:56:27;5.93;;;1.30;;
61709;SDS011;47633;51.494;5.386;2022-09-09T06:59:00;5.65;;;1.17;;
61709;SDS011;47633;51.494;5.386;2022-09-09T07:01:29;4.38;;;1.17;;
61709;SDS011;47633;51.494;5.386;2022-09-09T07:03:57;3.75;;;1.10;;
61709;SDS011;47633;51.494;5.386;2022-09-09T07:09:17;3.90;;;1.08;;
61709;SDS011;47633;51.494;5.386;2022-09-09T07:11:43;5.70;;;1.37;;
61709;SDS011;47633;51.494;5.386;2022-09-09T07:14:10;5.32;;;1.23;;
61709;SDS011;47633;51.494;5.386;2022-09-09T07:16:38;6.38;;;1.15;;
61709;SDS011;47633;51.494;5.386;2022-09-09T07:19:04;6.93;;;1.33;;
61709;SDS011;47633;51.494;5.386;2022-09-09T07:21:30;4.60;;;1.25;;
61709;SDS011;47633;51.494;5.386;2022-09-09T07:23:56;5.15;;;1.08;;
61709;SDS011;47633;51.494;5.386;2022-09-09T07:26:23;6.90;;;1.40;;
61709;SDS011;47633;51.494;5.386;2022-09-09T07:28:51;4.90;;;1.92;;
61709;SDS011;47633;51.494;5.386;2022-09-09T07:31:17;6.20;;;1.30;;
61709;SDS011;47633;51.494;5.386;2022-09-09T07:33:45;6.80;;;1.35;;
61709;SDS011;47633;51.494;5.386;2022-09-09T07:36:13;8.15;;;1.25;;
61709;SDS011;47633;51.494;5.386;2022-09-09T07:38:50;3.38;;;1.05;;
61709;SDS011;47633;51.494;5.386;2022-09-09T07:41:27;5.82;;;1.30;;
61709;SDS011;47633;51.494;5.386;2022-09-09T07:43:57;4.68;;;0.90;;
61709;SDS011;47633;51.494;5.386;2022-09-09T07:46:24;6.25;;;1.00;;
61709;SDS011;47633;51.494;5.386;2022-09-09T07:48:51;6.53;;;1.00;;
61709;SDS011;47633;51.494;5.386;2022-09-09T07:51:22;4.93;;;1.20;;
61709;SDS011;47633;51.494;5.386;2022-09-09T07:53:52;5.43;;;1.35;;
61709;SDS011;47633;51.494;5.386;2022-09-09T07:56:19;3.60;;;0.80;;
61709;SDS011;47633;51.494;5.386;2022-09-09T07:58:48;6.32;;;1.10;;
61709;SDS011;47633;51.494;5.386;2022-09-09T08:01:15;6.00;;;1.10;;
61709;SDS011;47633;51.494;5.386;2022-09-09T08:03:43;5.05;;;1.38;;
61709;SDS011;47633;51.494;5.386;2022-09-09T08:06:10;6.88;;;1.65;;
61709;SDS011;47633;51.494;5.386;2022-09-09T08:08:37;4.28;;;1.17;;
61709;SDS011;47633;51.494;5.386;2022-09-09T08:11:07;6.90;;;1.17;;
61709;SDS011;47633;51.494;5.386;2022-09-09T08:13:41;4.78;;;1.10;;
61709;SDS011;47633;51.494;5.386;2022-09-09T08:16:09;2.95;;;1.00;;
61709;SDS011;47633;51.494;5.386;2022-09-09T08:18:36;5.82;;;1.40;;
61709;SDS011;47633;51.494;5.386;2022-09-09T08:21:09;4.65;;;1.00;;
61709;SDS011;47633;51.494;5.386;2022-09-09T08:23:40;6.05;;;1.40;;
61709;SDS011;47633;51.494;5.386;2022-09-09T08:26:08;4.75;;;1.05;;
61709;SDS011;47633;51.494;5.386;2022-09-09T08:28:35;5.20;;;1.20;;
61709;SDS011;47633;51.494;5.386;2022-09-09T08:31:05;6.20;;;1.30;;
61709;SDS011;47633;51.494;5.386;2022-09-09T08:36:03;4.60;;;1.10;;
61709;SDS011;47633;51.494;5.386;2022-09-09T08:38:28;4.60;;;1.35;;
61709;SDS011;47633;51.494;5.386;2022-09-09T08:40:54;4.67;;;1.20;;
61709;SDS011;47633;51.494;5.386;2022-09-09T08:43:28;5.10;;;1.27;;
61709;SDS011;47633;51.494;5.386;2022-09-09T08:46:03;5.97;;;1.55;;
61709;SDS011;47633;51.494;5.386;2022-09-09T08:48:40;5.00;;;1.30;;
61709;SDS011;47633;51.494;5.386;2022-09-09T08:51:12;2.78;;;0.98;;
61709;SDS011;47633;51.494;5.386;2022-09-09T08:53:46;6.10;;;1.50;;
61709;SDS011;47633;51.494;5.386;2022-09-09T08:56:16;6.20;;;1.20;;
61709;SDS011;47633;51.494;5.386;2022-09-09T08:58:48;5.20;;;0.90;;
61709;SDS011;47633;51.494;5.386;2022-09-09T09:01:23;7.38;;;1.35;;
61709;SDS011;47633;51.494;5.386;2022-09-09T09:07:11;5.50;;;1.17;;
61709;SDS011;47633;51.494;5.386;2022-09-09T09:12:29;5.60;;;1.88;;
61709;SDS011;47633;51.494;5.386;2022-09-09T09:15:00;6.00;;;1.40;;
61709;SDS011;47633;51.494;5.386;2022-09-09T09:17:26;5.18;;;1.17;;
61709;SDS011;47633;51.494;5.386;2022-09-09T09:19:56;5.40;;;1.15;;
61709;SDS011;47633;51.494;5.386;2022-09-09T09:22:42;4.93;;;1.10;;
61709;SDS011;47633;51.494;5.386;2022-09-09T09:25:21;5.22;;;0.90;;
61709;SDS011;47633;51.494;5.386;2022-09-09T09:30:36;5.10;;;1.20;;
61709;SDS011;47633;51.494;5.386;2022-09-09T09:33:15;6.93;;;1.20;;
61709;SDS011;47633;51.494;5.386;2022-09-09T09:35:46;4.63;;;1.00;;
61709;SDS011;47633;51.494;5.386;2022-09-09T09:38:23;6.35;;;1.13;;
61709;SDS011;47633;51.494;5.386;2022-09-09T09:43:20;4.22;;;1.17;;
61709;SDS011;47633;51.494;5.386;2022-09-09T09:45:50;5.35;;;1.33;;
61709;SDS011;47633;51.494;5.386;2022-09-09T09:48:15;6.27;;;1.30;;
61709;SDS011;47633;51.494;5.386;2022-09-09T09:53:24;3.92;;;1.15;;
61709;SDS011;47633;51.494;5.386;2022-09-09T09:55:54;4.97;;;1.15;;
61709;SDS011;47633;51.494;5.386;2022-09-09T09:58:22;6.43;;;1.00;;
61709;SDS011;47633;51.494;5.386;2022-09-09T10:00:49;4.68;;;1.15;;
61709;SDS011;47633;51.494;5.386;2022-09-09T10:03:30;6.97;;;1.10;;
61709;SDS011;47633;51.494;5.386;2022-09-09T10:05:58;4.50;;;1.00;;
61709;SDS011;47633;51.494;5.386;2022-09-09T10:08:26;5.23;;;0.90;;
61709;SDS011;47633;51.494;5.386;2022-09-09T10:16:11;6.78;;;1.27;;
61709;SDS011;47633;51.494;5.386;2022-09-09T10:18:56;4.35;;;1.05;;
61709;SDS011;47633;51.494;5.386;2022-09-09T10:27:28;5.50;;;1.00;;
61709;SDS011;47633;51.494;5.386;2022-09-09T10:30:24;7.30;;;1.38;;
61709;SDS011;47633;51.494;5.386;2022-09-09T10:33:16;5.50;;;1.20;;
61709;SDS011;47633;51.494;5.386;2022-09-09T10:38:47;4.82;;;1.17;;
61709;SDS011;47633;51.494;5.386;2022-09-09T10:44:23;6.93;;;1.23;;
61709;SDS011;47633;51.494;5.386;2022-09-09T10:50:23;7.25;;;1.35;;
61709;SDS011;47633;51.494;5.386;2022-09-09T10:55:15;7.57;;;1.00;;
61709;SDS011;47633;51.494;5.386;2022-09-09T10:57:44;4.47;;;1.20;;
61709;SDS011;47633;51.494;5.386;2022-09-09T11:00:22;6.05;;;1.40;;
61709;SDS011;47633;51.494;5.386;2022-09-09T11:02:56;4.70;;;0.93;;
61709;SDS011;47633;51.494;5.386;2022-09-09T11:08:24;8.00;;;1.13;;
61709;SDS011;47633;51.494;5.386;2022-09-09T11:10:58;4.68;;;1.20;;
61709;SDS011;47633;51.494;5.386;2022-09-09T11:13:49;6.35;;;1.58;;
61709;SDS011;47633;51.494;5.386;2022-09-09T11:16:42;10.90;;;2.60;;
61709;SDS011;47633;51.494;5.386;2022-09-09T11:21:47;9.57;;;2.13;;
61709;SDS011;47633;51.494;5.386;2022-09-09T11:24:35;5.95;;;1.88;;
61709;SDS011;47633;51.494;5.386;2022-09-09T11:27:15;7.43;;;2.15;;
61709;SDS011;47633;51.494;5.386;2022-09-09T11:29:51;8.25;;;1.92;;
61709;SDS011;47633;51.494;5.386;2022-09-09T11:38:28;8.63;;;2.08;;
61709;SDS011;47633;51.494;5.386;2022-09-09T11:40:58;6.15;;;2.05;;
61709;SDS011;47633;51.494;5.386;2022-09-09T11:43:29;9.27;;;2.00;;
61709;SDS011;47633;51.494;5.386;2022-09-09T11:46:06;10.02;;;1.80;;
61709;SDS011;47633;51.494;5.386;2022-09-09T11:51:02;5.60;;;1.65;;
61709;SDS011;47633;51.494;5.386;2022-09-09T11:53:30;7.93;;;1.48;;
61709;SDS011;47633;51.494;5.386;2022-09-09T11:56:03;6.30;;;1.38;;
61709;SDS011;47633;51.494;5.386;2022-09-09T11:58:38;6.65;;;1.75;;
61709;SDS011;47633;51.494;5.386;2022-09-09T12:01:16;4.22;;;1.25;;
61709;SDS011;47633;51.494;5.386;2022-09-09T12:03:56;9.10;;;1.55;;
61709;SDS011;47633;51.494;5.386;2022-09-09T12:06:31;5.45;;;1.27;;
61709;SDS011;47633;51.494;5.386;2022-09-09T12:09:05;4.85;;;1.20;;
61709;SDS011;47633;51.494;5.386;2022-09-09T12:11:33;7.25;;;1.50;;
61709;SDS011;47633;51.494;5.386;2022-09-09T12:13:59;7.00;;;1.50;;
61709;SDS011;47633;51.494;5.386;2022-09-09T12:16:29;11.40;;;1.63;;
61709;SDS011;47633;51.494;5.386;2022-09-09T12:24:35;7.32;;;1.50;;
61709;SDS011;47633;51.494;5.386;2022-09-09T12:30:08;9.43;;;1.58;;
61709;SDS011;47633;51.494;5.386;2022-09-09T12:32:36;5.53;;;1.10;;
61709;SDS011;47633;51.494;5.386;2022-09-09T12:35:03;4.60;;;1.42;;
61709;SDS011;47633;51.494;5.386;2022-09-09T12:37:41;4.90;;;1.30;;
61709;SDS011;47633;51.494;5.386;2022-09-09T12:42:45;5.88;;;1.35;;
61709;SDS011;47633;51.494;5.386;2022-09-09T12:45:19;8.30;;;1.40;;
61709;SDS011;47633;51.494;5.386;2022-09-09T12:50:21;6.32;;;1.30;;
61709;SDS011;47633;51.494;5.386;2022-09-09T12:52:50;6.97;;;1.35;;
61709;SDS011;47633;51.494;5.386;2022-09-09T12:55:20;6.70;;;1.52;;
61709;SDS011;47633;51.494;5.386;2022-09-09T12:57:49;7.55;;;1.45;;
61709;SDS011;47633;51.494;5.386;2022-09-09T13:00:17;10.27;;;1.40;;
61709;SDS011;47633;51.494;5.386;2022-09-09T13:02:48;10.57;;;2.38;;
61709;SDS011;47633;51.494;5.386;2022-09-09T13:05:25;6.03;;;1.40;;
61709;SDS011;47633;51.494;5.386;2022-09-09T13:08:00;6.95;;;1.50;;
61709;SDS011;47633;51.494;5.386;2022-09-09T13:10:27;5.85;;;1.23;;
61709;SDS011;47633;51.494;5.386;2022-09-09T13:12:57;7.05;;;1.35;;
61709;SDS011;47633;51.494;5.386;2022-09-09T13:15:23;5.10;;;1.20;;
61709;SDS011;47633;51.494;5.386;2022-09-09T13:17:53;4.97;;;1.40;;
61709;SDS011;47633;51.494;5.386;2022-09-09T13:20:21;4.45;;;1.15;;
61709;SDS011;47633;51.494;5.386;2022-09-09T13:22:47;6.43;;;1.20;;
61709;SDS011;47633;51.494;5.386;2022-09-09T13:25:19;5.40;;;1.15;;
61709;SDS011;47633;51.494;5.386;2022-09-09T13:27:52;4.97;;;1.20;;
61709;SDS011;47633;51.494;5.386;2022-09-09T13:30:34;5.88;;;1.38;;
61709;SDS011;47633;51.494;5.386;2022-09-09T13:35:34;7.18;;;1.23;;
61709;SDS011;47633;51.494;5.386;2022-09-09T13:38:09;4.82;;;1.42;;
61709;SDS011;47633;51.494;5.386;2022-09-09T13:40:35;4.93;;;1.15;;
61709;SDS011;47633;51.494;5.386;2022-09-09T13:43:01;3.45;;;1.27;;
61709;SDS011;47633;51.494;5.386;2022-09-09T13:45:28;5.65;;;1.20;;
61709;SDS011;47633;51.494;5.386;2022-09-09T13:47:54;4.07;;;0.93;;
61709;SDS011;47633;51.494;5.386;2022-09-09T13:50:24;6.15;;;1.42;;
61709;SDS011;47633;51.494;5.386;2022-09-09T13:53:00;4.60;;;1.33;;
61709;SDS011;47633;51.494;5.386;2022-09-09T13:55:28;4.13;;;1.10;;
61709;SDS011;47633;51.494;5.386;2022-09-09T14:00:21;4.15;;;1.20;;
61709;SDS011;47633;51.494;5.386;2022-09-09T14:02:48;4.13;;;0.88;;
61709;SDS011;47633;51.494;5.386;2022-09-09T14:05:14;2.92;;;0.90;;
61709;SDS011;47633;51.494;5.386;2022-09-09T14:07:40;3.33;;;1.15;;
61709;SDS011;47633;51.494;5.386;2022-09-09T14:10:07;4.28;;;0.90;;
61709;SDS011;47633;51.494;5.386;2022-09-09T14:12:33;4.13;;;1.00;;
61709;SDS011;47633;51.494;5.386;2022-09-09T14:14:58;3.90;;;1.17;;
61709;SDS011;47633;51.494;5.386;2022-09-09T14:17:26;3.70;;;1.00;;
61709;SDS011;47633;51.494;5.386;2022-09-09T14:19:54;3.70;;;0.90;;
61709;SDS011;47633;51.494;5.386;2022-09-09T14:22:19;4.28;;;1.05;;
61709;SDS011;47633;51.494;5.386;2022-09-09T14:24:45;5.53;;;1.15;;
61709;SDS011;47633;51.494;5.386;2022-09-09T14:27:10;2.93;;;0.87;;
61709;SDS011;47633;51.494;5.386;2022-09-09T14:29:36;2.85;;;0.80;;
61709;SDS011;47633;51.494;5.386;2022-09-09T14:32:01;3.47;;;1.00;;
61709;SDS011;47633;51.494;5.386;2022-09-09T14:34:26;4.10;;;1.08;;
61709;SDS011;47633;51.494;5.386;2022-09-09T14:36:52;3.25;;;1.08;;
61709;SDS011;47633;51.494;5.386;2022-09-09T14:39:17;1.80;;;0.80;;
61709;SDS011;47633;51.494;5.386;2022-09-09T14:41:42;2.15;;;0.80;;
61709;SDS011;47633;51.494;5.386;2022-09-09T14:44:08;2.97;;;0.93;;
61709;SDS011;47633;51.494;5.386;2022-09-09T14:46:33;3.60;;;1.10;;
61709;SDS011;47633;51.494;5.386;2022-09-09T14:48:59;3.78;;;0.95;;
61709;SDS011;47633;51.494;5.386;2022-09-09T14:51:24;2.60;;;0.88;;
61709;SDS011;47633;51.494;5.386;2022-09-09T14:53:52;4.80;;;0.93;;
61709;SDS011;47633;51.494;5.386;2022-09-09T14:56:20;3.70;;;1.10;;
61709;SDS011;47633;51.494;5.386;2022-09-09T14:58:48;4.03;;;1.10;;
61709;SDS011;47633;51.494;5.386;2022-09-09T15:01:15;3.88;;;1.02;;
61709;SDS011;47633;51.494;5.386;2022-09-09T15:03:42;2.90;;;0.82;;
61709;SDS011;47633;51.494;5.386;2022-09-09T15:06:13;4.65;;;1.00;;
61709;SDS011;47633;51.494;5.386;2022-09-09T15:08:40;5.15;;;1.60;;
61709;SDS011;47633;51.494;5.386;2022-09-09T15:11:07;12.77;;;3.10;;
61709;SDS011;47633;51.494;5.386;2022-09-09T15:13:33;11.32;;;3.25;;
61709;SDS011;47633;51.494;5.386;2022-09-09T15:16:09;13.30;;;3.17;;
61709;SDS011;47633;51.494;5.386;2022-09-09T15:18:38;14.18;;;3.22;;
61709;SDS011;47633;51.494;5.386;2022-09-09T15:21:17;12.20;;;2.88;;
61709;SDS011;47633;51.494;5.386;2022-09-09T15:23:44;12.63;;;3.13;;
61709;SDS011;47633;51.494;5.386;2022-09-09T15:26:12;9.02;;;2.42;;
61709;SDS011;47633;51.494;5.386;2022-09-09T15:28:39;9.73;;;2.70;;
61709;SDS011;47633;51.494;5.386;2022-09-09T15:31:06;9.45;;;2.30;;
61709;SDS011;47633;51.494;5.386;2022-09-09T15:33:33;7.95;;;2.45;;
61709;SDS011;47633;51.494;5.386;2022-09-09T15:36:01;9.18;;;2.63;;
61709;SDS011;47633;51.494;5.386;2022-09-09T15:38:37;7.78;;;2.13;;
61709;SDS011;47633;51.494;5.386;2022-09-09T15:41:03;9.03;;;2.40;;
61709;SDS011;47633;51.494;5.386;2022-09-09T15:43:28;7.10;;;2.15;;
61709;SDS011;47633;51.494;5.386;2022-09-09T15:45:54;6.60;;;1.90;;
61709;SDS011;47633;51.494;5.386;2022-09-09T15:48:30;7.72;;;2.22;;
61709;SDS011;47633;51.494;5.386;2022-09-09T15:51:03;6.15;;;2.08;;
61709;SDS011;47633;51.494;5.386;2022-09-09T15:53:29;7.82;;;2.30;;
61709;SDS011;47633;51.494;5.386;2022-09-09T15:55:57;6.57;;;2.05;;
61709;SDS011;47633;51.494;5.386;2022-09-09T15:58:23;6.47;;;2.45;;
61709;SDS011;47633;51.494;5.386;2022-09-09T16:00:48;9.53;;;2.70;;
61709;SDS011;47633;51.494;5.386;2022-09-09T16:03:13;7.47;;;2.10;;
61709;SDS011;47633;51.494;5.386;2022-09-09T16:05:38;6.83;;;1.73;;
61709;SDS011;47633;51.494;5.386;2022-09-09T16:08:05;7.20;;;1.75;;
61709;SDS011;47633;51.494;5.386;2022-09-09T16:10:30;6.95;;;2.55;;
61709;SDS011;47633;51.494;5.386;2022-09-09T16:12:55;5.60;;;1.67;;
61709;SDS011;47633;51.494;5.386;2022-09-09T16:15:21;6.22;;;1.85;;
61709;SDS011;47633;51.494;5.386;2022-09-09T16:17:48;7.60;;;1.70;;
61709;SDS011;47633;51.494;5.386;2022-09-09T16:20:13;5.43;;;1.73;;
61709;SDS011;47633;51.494;5.386;2022-09-09T16:22:39;7.28;;;1.95;;
61709;SDS011;47633;51.494;5.386;2022-09-09T16:25:05;5.47;;;1.50;;
61709;SDS011;47633;51.494;5.386;2022-09-09T16:27:30;5.95;;;1.70;;
61709;SDS011;47633;51.494;5.386;2022-09-09T16:29:56;7.50;;;1.67;;
61709;SDS011;47633;51.494;5.386;2022-09-09T16:32:22;4.60;;;1.52;;
61709;SDS011;47633;51.494;5.386;2022-09-09T16:34:47;5.60;;;1.35;;
61709;SDS011;47633;51.494;5.386;2022-09-09T16:37:12;4.80;;;1.38;;
61709;SDS011;47633;51.494;5.386;2022-09-09T16:39:37;7.07;;;1.33;;
61709;SDS011;47633;51.494;5.386;2022-09-09T16:42:03;5.87;;;1.57;;
61709;SDS011;47633;51.494;5.386;2022-09-09T16:44:29;8.57;;;1.98;;
61709;SDS011;47633;51.494;5.386;2022-09-09T16:46:55;6.40;;;1.33;;
61709;SDS011;47633;51.494;5.386;2022-09-09T16:49:21;7.78;;;1.40;;
61709;SDS011;47633;51.494;5.386;2022-09-09T16:51:47;5.32;;;1.48;;
61709;SDS011;47633;51.494;5.386;2022-09-09T16:54:14;5.82;;;1.60;;
61709;SDS011;47633;51.494;5.386;2022-09-09T16:56:42;4.50;;;1.23;;